createdAt,value
2018-09-07T00:02:10.668Z,95234.00
2018-09-07T00:07:40.003Z,95235.00
2018-09-07T00:13:09.406Z,95234.00
2018-09-07T00:18:38.792Z,95234.00
2018-09-07T00:24:08.210Z,95233.00
2018-09-07T00:29:38.597Z,95231.00
2018-09-07T00:35:08.061Z,95230.00
2018-09-07T00:40:37.456Z,95227.00
2018-09-07T00:46:06.832Z,95225.00
2018-09-07T00:51:36.791Z,95230.00
2018-09-07T00:57:07.335Z,95234.00
2018-09-07T01:02:43.840Z,95236.00
2018-09-07T01:08:13.558Z,95239.00
2018-09-07T01:13:53.318Z,95248.00
2018-09-07T01:19:23.622Z,95250.00
2018-09-07T01:24:52.836Z,95255.00
2018-09-07T01:30:22.115Z,95253.00
2018-09-07T01:35:52.412Z,95261.00
2018-09-07T01:41:21.651Z,95251.00
2018-09-07T01:47:05.675Z,95257.00
2018-09-07T01:52:34.878Z,95259.00
2018-09-07T01:58:04.290Z,95259.00
2018-09-07T02:03:34.208Z,95250.00
2018-09-07T02:09:05.508Z,95258.00
2018-09-07T02:14:34.743Z,95246.00
2018-09-07T02:20:04.223Z,95259.00
2018-09-07T02:25:33.460Z,95259.00
2018-09-07T02:31:04.717Z,95253.00
2018-09-07T02:36:35.447Z,95258.00
2018-09-07T02:42:04.715Z,95261.00
2018-09-07T02:47:34.003Z,95259.00
2018-09-07T02:53:03.302Z,95264.00
2018-09-07T02:58:33.336Z,95259.00
2018-09-07T03:04:07.723Z,95266.00
2018-09-07T03:09:37.891Z,95264.00
2018-09-07T03:15:07.248Z,95266.00
2018-09-07T03:20:36.682Z,95265.00
2018-09-07T03:26:07.456Z,95269.00
2018-09-07T03:31:36.872Z,95277.00
2018-09-07T03:37:06.406Z,95274.00
2018-09-07T03:42:35.951Z,95285.00
2018-09-07T03:48:05.352Z,95285.00
2018-09-07T03:53:34.682Z,95285.00
2018-09-07T03:59:04.017Z,95299.00
2018-09-07T04:04:33.243Z,95297.00
2018-09-07T04:10:02.459Z,95301.00
2018-09-07T04:15:32.153Z,95302.00
2018-09-07T04:21:01.359Z,95317.00
2018-09-07T04:26:30.659Z,95328.00
2018-09-07T04:31:59.883Z,95329.00
2018-09-07T04:37:29.126Z,95342.00
2018-09-07T04:42:58.465Z,95337.00
2018-09-07T04:48:27.907Z,95335.00
2018-09-07T04:53:57.150Z,95339.00
2018-09-07T04:59:26.371Z,95344.00
2018-09-07T05:04:55.643Z,95351.00
2018-09-07T05:10:24.820Z,95349.00
2018-09-07T05:15:54.032Z,95357.00
2018-09-07T05:21:23.301Z,95355.00
2018-09-07T05:26:53.059Z,95369.00
2018-09-07T05:32:22.311Z,95370.00
2018-09-07T05:37:52.027Z,95370.00
2018-09-07T05:43:21.187Z,95370.00
2018-09-07T05:48:51.035Z,95380.00
2018-09-07T05:54:20.684Z,95383.00
2018-09-07T05:59:49.870Z,95382.00
2018-09-07T06:05:19.125Z,95387.00
2018-09-07T06:10:50.615Z,95399.00
2018-09-07T06:16:19.837Z,95391.00
2018-09-07T06:21:49.069Z,95402.00
2018-09-07T06:27:18.488Z,95408.00
2018-09-07T06:32:47.787Z,95405.00
2018-09-07T06:38:16.915Z,95415.00
2018-09-07T06:43:46.199Z,95417.00
2018-09-07T06:49:15.531Z,95422.00
2018-09-07T06:54:45.228Z,95434.00
2018-09-07T07:00:14.464Z,95438.00
2018-09-07T07:05:43.871Z,95442.00
2018-09-07T07:11:13.388Z,95449.00
2018-09-07T07:16:42.935Z,95442.00
2018-09-07T07:22:12.272Z,95447.00
2018-09-07T07:27:41.687Z,95460.00
2018-09-07T07:33:11.117Z,95453.00
2018-09-07T07:38:40.538Z,95463.00
2018-09-07T07:44:10.017Z,95469.00
2018-09-07T07:49:39.570Z,95463.00
2018-09-07T07:55:09.104Z,95466.00
2018-09-07T08:00:39.459Z,95467.00
2018-09-07T08:06:09.428Z,95471.00
2018-09-07T08:11:39.258Z,95471.00
2018-09-07T08:17:08.656Z,95486.00
2018-09-07T08:22:38.093Z,95478.00
2018-09-07T08:28:07.784Z,95486.00
2018-09-07T08:33:37.502Z,95490.00
2018-09-07T08:39:08.718Z,95500.00
2018-09-07T08:44:39.165Z,95503.00
2018-09-07T08:50:08.754Z,95496.00
2018-09-07T08:55:38.243Z,95500.00
2018-09-07T09:01:08.154Z,95502.00
2018-09-07T09:06:38.237Z,95508.00
2018-09-07T09:12:14.283Z,95516.00
2018-09-07T09:17:43.810Z,95520.00
2018-09-07T09:23:13.253Z,95525.00
2018-09-07T09:28:42.553Z,95522.00
2018-09-07T09:34:11.929Z,95528.00
2018-09-07T09:39:41.336Z,95532.00
2018-09-07T09:45:10.686Z,95524.00
2018-09-07T09:50:39.960Z,95522.00
2018-09-07T09:56:10.483Z,95527.00
2018-09-07T10:01:47.332Z,95536.00
2018-09-07T10:07:16.550Z,95526.00
2018-09-07T10:12:45.976Z,95529.00
2018-09-07T10:18:15.687Z,95529.00
2018-09-07T10:23:45.611Z,95522.00
2018-09-07T10:29:15.039Z,95527.00
2018-09-07T10:34:44.476Z,95534.00
2018-09-07T10:40:13.960Z,95529.00
2018-09-07T10:45:43.300Z,95535.00
2018-09-07T10:51:14.698Z,95540.00
2018-09-07T10:56:44.751Z,95534.00
2018-09-07T11:02:14.326Z,95537.00
2018-09-07T11:07:43.697Z,95549.00
2018-09-07T11:13:13.140Z,95522.00
2018-09-07T11:18:42.358Z,95537.00
2018-09-07T11:24:11.811Z,95532.00
2018-09-07T11:29:41.171Z,95530.00
2018-09-07T11:35:12.935Z,95537.00
2018-09-07T11:40:42.263Z,95529.00
2018-09-07T11:46:11.764Z,95522.00
2018-09-07T11:51:41.233Z,95512.00
2018-09-07T11:57:10.560Z,95532.00
2018-09-07T12:02:40.164Z,95528.00
2018-09-07T12:08:10.337Z,95536.00
2018-09-07T12:13:40.341Z,95536.00
2018-09-07T12:19:09.941Z,95535.00
2018-09-07T12:24:40.281Z,95528.00
2018-09-07T12:30:09.833Z,95528.00
2018-09-07T12:35:44.652Z,95526.00
2018-09-07T12:41:16.252Z,95533.00
2018-09-07T12:46:47.205Z,95530.00
2018-09-07T12:52:19.200Z,95540.00
2018-09-07T12:57:48.891Z,95542.00
2018-09-07T13:03:18.235Z,95544.00
2018-09-07T13:08:47.576Z,95542.00
2018-09-07T13:14:16.830Z,95542.00
2018-09-07T13:19:46.039Z,95546.00
2018-09-07T13:25:18.310Z,95547.00
2018-09-07T13:30:47.728Z,95534.00
2018-09-07T13:36:16.985Z,95532.00
2018-09-07T13:41:46.244Z,95515.00
2018-09-07T13:47:21.631Z,95536.00
2018-09-07T13:52:50.972Z,95547.00
2018-09-07T13:58:20.312Z,95574.00
2018-09-07T14:03:49.604Z,95584.00
2018-09-07T14:09:18.921Z,95575.00
2018-09-07T14:14:49.234Z,95591.00
2018-09-07T14:20:18.508Z,95583.00
2018-09-07T14:25:47.769Z,95595.00
2018-09-07T14:31:17.045Z,95596.00
2018-09-07T14:36:46.289Z,95591.00
2018-09-07T14:42:16.240Z,95595.00
2018-09-07T14:47:45.483Z,95597.00
2018-09-07T14:53:14.852Z,95594.00
2018-09-07T14:58:44.132Z,95598.00
2018-09-07T15:04:13.780Z,95604.00
2018-09-07T15:09:43.236Z,95594.00
2018-09-07T15:15:13.004Z,95599.00
2018-09-07T15:20:42.368Z,95590.00
2018-09-07T15:26:12.088Z,95597.00
2018-09-07T15:31:41.547Z,95594.00
2018-09-07T15:37:11.001Z,95599.00
2018-09-07T15:42:40.628Z,95605.00
2018-09-07T15:48:10.000Z,95606.00
2018-09-07T15:53:39.514Z,95605.00
2018-09-07T15:59:08.853Z,95600.00
2018-09-07T16:04:38.211Z,95606.00
2018-09-07T16:10:07.829Z,95613.00
2018-09-07T16:15:37.703Z,95600.00
2018-09-07T16:21:07.270Z,95603.00
2018-09-07T16:26:36.541Z,95619.00
2018-09-07T16:32:05.892Z,95619.00
2018-09-07T16:37:35.402Z,95626.00
2018-09-07T16:43:04.843Z,95627.00
2018-09-07T16:48:34.336Z,95633.00
2018-09-07T16:54:03.659Z,95633.00
2018-09-07T16:59:34.288Z,95641.00
2018-09-07T17:05:03.658Z,95649.00
2018-09-07T17:10:32.939Z,95654.00
2018-09-07T17:16:02.409Z,95663.00
2018-09-07T17:21:38.845Z,95667.00
2018-09-07T17:27:08.564Z,95667.00
2018-09-07T17:32:38.099Z,95684.00
2018-09-07T17:38:10.937Z,95686.00
2018-09-07T17:43:44.620Z,95709.00
2018-09-07T17:49:13.947Z,95711.00
2018-09-07T17:54:44.292Z,95719.00
2018-09-07T18:00:15.652Z,95724.00
2018-09-07T18:05:44.963Z,95751.00
2018-09-07T18:11:14.433Z,95757.00
2018-09-07T18:17:02.856Z,95765.00
2018-09-07T18:22:34.157Z,95771.00
2018-09-07T18:28:04.391Z,95779.00
2018-09-07T18:33:33.799Z,95790.00
2018-09-07T18:39:05.429Z,95804.00
2018-09-07T18:44:37.708Z,95801.00
2018-09-07T18:50:07.260Z,95814.00
2018-09-07T18:55:37.752Z,95818.00
2018-09-07T19:01:07.178Z,95826.00
2018-09-07T19:06:36.592Z,95826.00
2018-09-07T19:12:06.151Z,95833.00
2018-09-07T19:17:35.890Z,95826.00
2018-09-07T19:23:05.356Z,95828.00
2018-09-07T19:28:35.140Z,95841.00
2018-09-07T19:34:04.412Z,95839.00
2018-09-07T19:39:34.083Z,95844.00
2018-09-07T19:45:03.793Z,95850.00
2018-09-07T19:50:33.429Z,95854.00
2018-09-07T19:56:03.274Z,95845.00
2018-09-07T20:01:32.903Z,95849.00
2018-09-07T20:07:02.311Z,95855.00
2018-09-07T20:12:32.847Z,95852.00
2018-09-07T20:18:02.229Z,95852.00
2018-09-07T20:23:31.608Z,95846.00
2018-09-07T20:29:01.053Z,95847.00
2018-09-07T20:34:30.341Z,95854.00
2018-09-07T20:40:05.748Z,95857.00
2018-09-07T20:45:36.306Z,95862.00
2018-09-07T20:51:06.374Z,95884.00
2018-09-07T20:56:35.832Z,95903.00
2018-09-07T21:02:05.430Z,95903.00
2018-09-07T21:07:34.807Z,95912.00
2018-09-07T21:13:04.433Z,95921.00
2018-09-07T21:18:35.186Z,95926.00
2018-09-07T21:24:08.636Z,95932.00
2018-09-07T21:29:38.284Z,95922.00
2018-09-07T21:35:08.460Z,95928.00
2018-09-07T21:40:38.212Z,95933.00
2018-09-07T21:46:07.637Z,95944.00
2018-09-07T21:51:37.702Z,95944.00
2018-09-07T21:57:12.816Z,95954.00
2018-09-07T22:02:43.511Z,95958.00
2018-09-07T22:08:13.058Z,95974.00
2018-09-07T22:13:42.725Z,95970.00
2018-09-07T22:19:12.315Z,95982.00
2018-09-07T22:24:41.764Z,95978.00
2018-09-07T22:30:11.198Z,95981.00
2018-09-07T22:35:40.676Z,95977.00
2018-09-07T22:41:11.164Z,95973.00
2018-09-07T22:46:40.747Z,95978.00
2018-09-07T22:52:11.308Z,95984.00
2018-09-07T22:57:40.932Z,95993.00
2018-09-07T23:03:10.347Z,95993.00
2018-09-07T23:08:39.719Z,95994.00
2018-09-07T23:14:09.231Z,95981.00
2018-09-07T23:19:38.684Z,95981.00
2018-09-07T23:25:08.306Z,95986.00
2018-09-07T23:30:37.731Z,95995.00
2018-09-07T23:36:07.127Z,95983.00
2018-09-07T23:41:36.682Z,95984.00
2018-09-07T23:47:07.007Z,95976.00
2018-09-07T23:52:37.438Z,95982.00
2018-09-07T23:58:07.074Z,95982.00
